Wilmington, OH

9:50 AM EDT on March 28, 2017 (GMT -0400)
2.2 N Wilmington | | Change Station

Elev 1053 ft 39.47 °N, 83.84 °W | Updated 14 minutes ago

Light Rain
Light Rain Mist
55.8 °F
Feels Like 55.8 °F
N
1.0
Wind Variable Wind from WNW
Gusts 5.0 mph

Today
High -- | Low -- °F
--% Chance of Precip.
Yesterday
High -- | Low -- °F
Precip. -- in
Pressure 29.92 in
Visibility 2.0 miles
Clouds Mostly Cloudy 400 ft
Overcast 3000 ft
Dew Point 55 °F
Humidity 96%
Rainfall 0.00 in
Snow Depth Not available.
7:25 AM 7:55 PM
New Moon, 0% visible
SPECI KILN 281335Z AUTO 29005KT 2SM -RA BR BKN004 OVC030 13/13 A2992 RMK AO2 RAB25 P0000 T01330128
Pressure 29.92 in
Visibility 2.0 miles
Clouds Mostly Cloudy 400 ft
Overcast 3000 ft
Dew Point 55 °F
Humidity 96%
Rainfall 0.00 in
Snow Depth Not available.
7:25 AM 7:55 PM
New Moon, 0% visible
SPECI KILN 281335Z AUTO 29005KT 2SM -RA BR BKN004 OVC030 13/13 A2992 RMK AO2 RAB25 P0000 T01330128

Get Severe Weather Alerts

Thanks for signing up!

Be on the lookout for a verification email in your inbox.

You'll start receiving the daily forecast at 8 AM.

×

10-Day Weather Forecast

Almanac

Astronomy

Mar. 28, 2017 Rise Set
Actual Time
Civil Twilight
Nautical Twilight
Astronomical Twilight
Moon
Length of Visible Light
Length of Day
Tomorrow will be .
, % of the Moon is Illuminated

Today's Extremes

State Highs State Lows

Community

WunderPhotos

Upload Photos

1,962,540 photos uploaded!

WunderBlog® & News

Nearby

Air Quality

  Air Quality AQ Index Pollutant
Not available.

Snow Depth

Station Depth Elevation

Earthquake Activity

City Distance Mag. Time & Date
Minimum magnitude displayed is 2.5.

Earthquake Activity

City Distance Mag. Time & Date
Minimum magnitude displayed is 2.5.

Coastal Water Temperatures

Place Temperature

Stations

Nearby Weather Stations

Station Location Temp. Windchill Dew Point Humidity Wind Precip. Elev Updated Type
                   

Watches & Warnings

There are currently no watches in effect.